Arietta, New York
Current Conditions -  °F | °C
As of 9:15 PM on Friday 31 Oct 2014 (Local Time) from KNY0 Reporting Station
Overcast Overcast  
Wind Chill: 38°   Ceiling: 6000
Heat Index: 42°   Visibility: 10mi
Dew Point: 31°   Wind: 8mph
Humidity: 64%   Direction: 50°NE
Pressure: 29.97"   Gusts: NA
Location:  43.5975°N, 74.5775°W
Report Text: KNY0 010115Z AUTO 05007KT 10SM SCT047 OVC060 06/00 A2997 RMK AO2 T00581005
Loading
Personal Weather Stations






























Interactive Weather Map
Tropical Storm Tracking
New forecast layout! Learn more

10-Day Weather Forecast

Advertisements
Track Severe Weather on mobile